sensor_id;sensor_type;location;lat;lon;timestamp;P1;durP1;ratioP1;P2;durP2;ratioP2
74293;SDS011;64044;59.904;10.738;2023-03-15T00:00:41;2.55;;;1.05;;
74293;SDS011;64044;59.904;10.738;2023-03-15T00:03:07;2.85;;;1.00;;
74293;SDS011;64044;59.904;10.738;2023-03-15T00:05:33;4.07;;;1.10;;
74293;SDS011;64044;59.904;10.738;2023-03-15T00:07:59;1.95;;;1.00;;
74293;SDS011;64044;59.904;10.738;2023-03-15T00:10:26;1.98;;;0.80;;
74293;SDS011;64044;59.904;10.738;2023-03-15T00:12:52;1.30;;;0.60;;
74293;SDS011;64044;59.904;10.738;2023-03-15T00:15:18;4.47;;;0.63;;
74293;SDS011;64044;59.904;10.738;2023-03-15T00:17:44;2.35;;;0.70;;
74293;SDS011;64044;59.904;10.738;2023-03-15T00:20:10;2.65;;;0.77;;
74293;SDS011;64044;59.904;10.738;2023-03-15T00:22:37;1.80;;;0.93;;
74293;SDS011;64044;59.904;10.738;2023-03-15T00:25:03;3.40;;;1.05;;
74293;SDS011;64044;59.904;10.738;2023-03-15T00:27:29;2.58;;;1.15;;
74293;SDS011;64044;59.904;10.738;2023-03-15T00:29:54;2.55;;;1.20;;
74293;SDS011;64044;59.904;10.738;2023-03-15T00:32:20;2.60;;;1.25;;
74293;SDS011;64044;59.904;10.738;2023-03-15T00:34:46;3.85;;;1.30;;
74293;SDS011;64044;59.904;10.738;2023-03-15T00:37:16;5.95;;;1.27;;
74293;SDS011;64044;59.904;10.738;2023-03-15T00:39:46;3.78;;;1.40;;
74293;SDS011;64044;59.904;10.738;2023-03-15T00:42:13;3.92;;;1.15;;
74293;SDS011;64044;59.904;10.738;2023-03-15T00:44:43;1.58;;;0.95;;
74293;SDS011;64044;59.904;10.738;2023-03-15T00:47:09;2.25;;;1.23;;
74293;SDS011;64044;59.904;10.738;2023-03-15T00:49:36;2.47;;;1.10;;
74293;SDS011;64044;59.904;10.738;2023-03-15T00:52:02;5.03;;;1.00;;
74293;SDS011;64044;59.904;10.738;2023-03-15T00:54:28;4.15;;;1.50;;
74293;SDS011;64044;59.904;10.738;2023-03-15T00:56:57;1.50;;;1.00;;
74293;SDS011;64044;59.904;10.738;2023-03-15T00:59:28;6.50;;;1.40;;
74293;SDS011;64044;59.904;10.738;2023-03-15T01:01:59;3.53;;;1.20;;
74293;SDS011;64044;59.904;10.738;2023-03-15T01:04:26;2.55;;;1.35;;
74293;SDS011;64044;59.904;10.738;2023-03-15T01:06:52;4.28;;;1.45;;
74293;SDS011;64044;59.904;10.738;2023-03-15T01:09:18;3.70;;;1.15;;
74293;SDS011;64044;59.904;10.738;2023-03-15T01:11:43;3.22;;;0.82;;
74293;SDS011;64044;59.904;10.738;2023-03-15T01:14:09;2.53;;;1.15;;
74293;SDS011;64044;59.904;10.738;2023-03-15T01:16:35;4.93;;;1.45;;
74293;SDS011;64044;59.904;10.738;2023-03-15T01:19:01;3.17;;;1.35;;
74293;SDS011;64044;59.904;10.738;2023-03-15T01:21:26;5.32;;;1.85;;
74293;SDS011;64044;59.904;10.738;2023-03-15T01:23:52;5.80;;;1.40;;
74293;SDS011;64044;59.904;10.738;2023-03-15T01:26:18;1.98;;;1.13;;
74293;SDS011;64044;59.904;10.738;2023-03-15T01:28:45;2.45;;;1.10;;
74293;SDS011;64044;59.904;10.738;2023-03-15T01:31:18;2.47;;;1.02;;
74293;SDS011;64044;59.904;10.738;2023-03-15T01:33:46;2.45;;;0.90;;
74293;SDS011;64044;59.904;10.738;2023-03-15T01:36:12;1.67;;;0.82;;
74293;SDS011;64044;59.904;10.738;2023-03-15T01:38:39;2.50;;;0.75;;
74293;SDS011;64044;59.904;10.738;2023-03-15T01:41:05;3.50;;;1.42;;
74293;SDS011;64044;59.904;10.738;2023-03-15T01:43:31;1.50;;;0.90;;
74293;SDS011;64044;59.904;10.738;2023-03-15T01:57:09;2.95;;;1.40;;
74293;SDS011;64044;59.904;10.738;2023-03-15T01:59:45;7.05;;;1.65;;
74293;SDS011;64044;59.904;10.738;2023-03-15T02:02:15;3.25;;;1.42;;
74293;SDS011;64044;59.904;10.738;2023-03-15T02:04:49;3.67;;;1.48;;
74293;SDS011;64044;59.904;10.738;2023-03-15T02:07:30;3.25;;;1.48;;
74293;SDS011;64044;59.904;10.738;2023-03-15T02:10:11;3.42;;;1.27;;
74293;SDS011;64044;59.904;10.738;2023-03-15T02:12:40;6.28;;;1.60;;
74293;SDS011;64044;59.904;10.738;2023-03-15T02:15:10;2.20;;;0.88;;
74293;SDS011;64044;59.904;10.738;2023-03-15T02:17:37;3.55;;;1.20;;
74293;SDS011;64044;59.904;10.738;2023-03-15T02:26:05;2.20;;;1.27;;
74293;SDS011;64044;59.904;10.738;2023-03-15T02:28:23;2.72;;;0.95;;
74293;SDS011;64044;59.904;10.738;2023-03-15T02:30:49;4.15;;;1.23;;
74293;SDS011;64044;59.904;10.738;2023-03-15T02:36:22;4.25;;;1.27;;
74293;SDS011;64044;59.904;10.738;2023-03-15T02:38:50;2.28;;;1.25;;
74293;SDS011;64044;59.904;10.738;2023-03-15T02:41:20;2.28;;;1.30;;
74293;SDS011;64044;59.904;10.738;2023-03-15T02:43:50;2.55;;;0.93;;
74293;SDS011;64044;59.904;10.738;2023-03-15T02:46:21;1.98;;;0.73;;
74293;SDS011;64044;59.904;10.738;2023-03-15T02:48:47;3.50;;;1.17;;
74293;SDS011;64044;59.904;10.738;2023-03-15T02:51:17;3.28;;;1.15;;
74293;SDS011;64044;59.904;10.738;2023-03-15T02:53:45;2.65;;;0.95;;
74293;SDS011;64044;59.904;10.738;2023-03-15T02:56:11;3.55;;;0.93;;
74293;SDS011;64044;59.904;10.738;2023-03-15T02:58:38;5.80;;;1.15;;
74293;SDS011;64044;59.904;10.738;2023-03-15T03:01:04;1.52;;;0.95;;
74293;SDS011;64044;59.904;10.738;2023-03-15T03:03:30;2.92;;;1.30;;
74293;SDS011;64044;59.904;10.738;2023-03-15T03:05:55;2.80;;;1.42;;
74293;SDS011;64044;59.904;10.738;2023-03-15T03:08:21;3.10;;;1.45;;
74293;SDS011;64044;59.904;10.738;2023-03-15T03:10:47;3.42;;;1.35;;
74293;SDS011;64044;59.904;10.738;2023-03-15T03:13:13;3.95;;;1.10;;
74293;SDS011;64044;59.904;10.738;2023-03-15T03:15:39;1.60;;;0.93;;
74293;SDS011;64044;59.904;10.738;2023-03-15T03:18:09;2.15;;;1.17;;
74293;SDS011;64044;59.904;10.738;2023-03-15T03:20:35;2.70;;;1.10;;
74293;SDS011;64044;59.904;10.738;2023-03-15T03:23:01;2.58;;;1.05;;
74293;SDS011;64044;59.904;10.738;2023-03-15T03:25:30;3.15;;;1.30;;
74293;SDS011;64044;59.904;10.738;2023-03-15T03:27:57;4.10;;;1.42;;
74293;SDS011;64044;59.904;10.738;2023-03-15T03:30:23;2.80;;;1.35;;
74293;SDS011;64044;59.904;10.738;2023-03-15T03:32:49;4.22;;;1.27;;
74293;SDS011;64044;59.904;10.738;2023-03-15T03:35:15;4.93;;;1.48;;
74293;SDS011;64044;59.904;10.738;2023-03-15T03:37:41;1.38;;;1.05;;
74293;SDS011;64044;59.904;10.738;2023-03-15T03:40:07;5.15;;;1.52;;
74293;SDS011;64044;59.904;10.738;2023-03-15T03:42:33;4.18;;;1.42;;
74293;SDS011;64044;59.904;10.738;2023-03-15T03:44:59;3.67;;;1.85;;
74293;SDS011;64044;59.904;10.738;2023-03-15T03:47:26;6.40;;;1.75;;
74293;SDS011;64044;59.904;10.738;2023-03-15T03:49:51;3.65;;;1.73;;
74293;SDS011;64044;59.904;10.738;2023-03-15T03:52:17;3.80;;;1.80;;
74293;SDS011;64044;59.904;10.738;2023-03-15T03:54:43;3.03;;;1.60;;
74293;SDS011;64044;59.904;10.738;2023-03-15T03:57:09;3.90;;;1.92;;
74293;SDS011;64044;59.904;10.738;2023-03-15T03:59:35;3.65;;;1.52;;
74293;SDS011;64044;59.904;10.738;2023-03-15T04:02:01;6.00;;;1.77;;
74293;SDS011;64044;59.904;10.738;2023-03-15T04:04:26;6.28;;;2.63;;
74293;SDS011;64044;59.904;10.738;2023-03-15T04:06:52;2.85;;;1.35;;
74293;SDS011;64044;59.904;10.738;2023-03-15T04:09:18;4.45;;;1.33;;
74293;SDS011;64044;59.904;10.738;2023-03-15T04:11:46;2.28;;;1.15;;
74293;SDS011;64044;59.904;10.738;2023-03-15T04:14:13;2.70;;;1.38;;
74293;SDS011;64044;59.904;10.738;2023-03-15T04:16:38;2.13;;;1.10;;
74293;SDS011;64044;59.904;10.738;2023-03-15T04:19:05;3.22;;;1.60;;
74293;SDS011;64044;59.904;10.738;2023-03-15T04:21:31;2.63;;;1.20;;
74293;SDS011;64044;59.904;10.738;2023-03-15T04:23:58;4.40;;;1.60;;
74293;SDS011;64044;59.904;10.738;2023-03-15T04:26:25;1.52;;;0.90;;
74293;SDS011;64044;59.904;10.738;2023-03-15T04:28:55;3.00;;;1.35;;
74293;SDS011;64044;59.904;10.738;2023-03-15T04:31:22;1.67;;;0.93;;
74293;SDS011;64044;59.904;10.738;2023-03-15T04:33:52;4.57;;;1.20;;
74293;SDS011;64044;59.904;10.738;2023-03-15T04:36:19;5.07;;;1.08;;
74293;SDS011;64044;59.904;10.738;2023-03-15T04:38:46;1.85;;;1.00;;
74293;SDS011;64044;59.904;10.738;2023-03-15T04:41:16;3.75;;;1.30;;
74293;SDS011;64044;59.904;10.738;2023-03-15T04:43:42;1.80;;;0.88;;
74293;SDS011;64044;59.904;10.738;2023-03-15T04:46:09;2.90;;;1.33;;
74293;SDS011;64044;59.904;10.738;2023-03-15T04:48:35;2.50;;;1.10;;
74293;SDS011;64044;59.904;10.738;2023-03-15T04:51:01;1.85;;;1.00;;
74293;SDS011;64044;59.904;10.738;2023-03-15T04:53:26;2.03;;;1.05;;
74293;SDS011;64044;59.904;10.738;2023-03-15T04:55:52;1.70;;;1.15;;
74293;SDS011;64044;59.904;10.738;2023-03-15T04:58:18;4.60;;;1.42;;
74293;SDS011;64044;59.904;10.738;2023-03-15T05:00:44;2.80;;;0.82;;
74293;SDS011;64044;59.904;10.738;2023-03-15T05:03:10;3.55;;;1.00;;
74293;SDS011;64044;59.904;10.738;2023-03-15T05:05:36;0.95;;;0.63;;
74293;SDS011;64044;59.904;10.738;2023-03-15T05:08:02;5.03;;;0.93;;
74293;SDS011;64044;59.904;10.738;2023-03-15T05:10:27;2.78;;;0.77;;
74293;SDS011;64044;59.904;10.738;2023-03-15T05:12:57;2.60;;;1.00;;
74293;SDS011;64044;59.904;10.738;2023-03-15T05:15:23;2.58;;;1.02;;
74293;SDS011;64044;59.904;10.738;2023-03-15T05:17:48;1.85;;;0.80;;
74293;SDS011;64044;59.904;10.738;2023-03-15T05:20:19;3.00;;;0.85;;
74293;SDS011;64044;59.904;10.738;2023-03-15T05:22:45;4.20;;;0.90;;
74293;SDS011;64044;59.904;10.738;2023-03-15T05:25:11;3.65;;;0.90;;
74293;SDS011;64044;59.904;10.738;2023-03-15T05:27:38;1.30;;;0.80;;
74293;SDS011;64044;59.904;10.738;2023-03-15T05:30:04;3.17;;;0.98;;
74293;SDS011;64044;59.904;10.738;2023-03-15T05:32:31;5.60;;;1.08;;
74293;SDS011;64044;59.904;10.738;2023-03-15T05:35:03;5.72;;;1.55;;
74293;SDS011;64044;59.904;10.738;2023-03-15T05:37:30;4.03;;;1.67;;
74293;SDS011;64044;59.904;10.738;2023-03-15T05:39:57;3.88;;;2.15;;
74293;SDS011;64044;59.904;10.738;2023-03-15T05:42:23;5.72;;;4.05;;
74293;SDS011;64044;59.904;10.738;2023-03-15T05:44:52;14.77;;;7.32;;
74293;SDS011;64044;59.904;10.738;2023-03-15T05:47:19;11.52;;;5.90;;
74293;SDS011;64044;59.904;10.738;2023-03-15T05:49:45;8.65;;;4.35;;
74293;SDS011;64044;59.904;10.738;2023-03-15T05:52:11;8.50;;;3.55;;
74293;SDS011;64044;59.904;10.738;2023-03-15T05:54:36;10.77;;;5.57;;
74293;SDS011;64044;59.904;10.738;2023-03-15T05:57:02;15.70;;;9.57;;
74293;SDS011;64044;59.904;10.738;2023-03-15T05:59:28;17.00;;;8.70;;
74293;SDS011;64044;59.904;10.738;2023-03-15T06:01:54;15.32;;;7.57;;
74293;SDS011;64044;59.904;10.738;2023-03-15T06:04:20;13.43;;;6.68;;
74293;SDS011;64044;59.904;10.738;2023-03-15T06:06:46;9.60;;;4.38;;
74293;SDS011;64044;59.904;10.738;2023-03-15T06:09:12;7.50;;;3.17;;
74293;SDS011;64044;59.904;10.738;2023-03-15T06:11:38;10.70;;;6.63;;
74293;SDS011;64044;59.904;10.738;2023-03-15T06:14:04;13.27;;;7.18;;
74293;SDS011;64044;59.904;10.738;2023-03-15T06:16:29;10.75;;;4.70;;
74293;SDS011;64044;59.904;10.738;2023-03-15T06:18:55;5.13;;;3.83;;
74293;SDS011;64044;59.904;10.738;2023-03-15T06:21:21;5.90;;;2.78;;
74293;SDS011;64044;59.904;10.738;2023-03-15T06:23:46;5.55;;;2.60;;
74293;SDS011;64044;59.904;10.738;2023-03-15T06:26:12;4.30;;;2.33;;
74293;SDS011;64044;59.904;10.738;2023-03-15T06:28:39;8.18;;;2.03;;
74293;SDS011;64044;59.904;10.738;2023-03-15T06:31:09;6.85;;;2.03;;
74293;SDS011;64044;59.904;10.738;2023-03-15T06:36:02;10.55;;;4.13;;
74293;SDS011;64044;59.904;10.738;2023-03-15T06:38:28;6.53;;;3.03;;
74293;SDS011;64044;59.904;10.738;2023-03-15T06:40:55;13.57;;;3.28;;
74293;SDS011;64044;59.904;10.738;2023-03-15T06:43:29;6.18;;;1.98;;
74293;SDS011;64044;59.904;10.738;2023-03-15T06:45:55;6.35;;;2.13;;
74293;SDS011;64044;59.904;10.738;2023-03-15T06:48:24;5.03;;;1.60;;
74293;SDS011;64044;59.904;10.738;2023-03-15T06:50:50;5.78;;;1.60;;
74293;SDS011;64044;59.904;10.738;2023-03-15T06:53:16;2.42;;;1.38;;
74293;SDS011;64044;59.904;10.738;2023-03-15T06:55:42;4.70;;;1.60;;
74293;SDS011;64044;59.904;10.738;2023-03-15T06:58:08;7.97;;;1.73;;
74293;SDS011;64044;59.904;10.738;2023-03-15T07:00:34;2.95;;;1.40;;
74293;SDS011;64044;59.904;10.738;2023-03-15T07:03:00;3.10;;;1.83;;
74293;SDS011;64044;59.904;10.738;2023-03-15T07:05:26;3.10;;;1.55;;
74293;SDS011;64044;59.904;10.738;2023-03-15T07:07:52;2.65;;;1.30;;
74293;SDS011;64044;59.904;10.738;2023-03-15T07:10:18;3.42;;;1.40;;
74293;SDS011;64044;59.904;10.738;2023-03-15T07:12:44;2.67;;;1.40;;
74293;SDS011;64044;59.904;10.738;2023-03-15T07:15:10;7.07;;;1.27;;
74293;SDS011;64044;59.904;10.738;2023-03-15T07:17:36;7.00;;;1.20;;
74293;SDS011;64044;59.904;10.738;2023-03-15T07:20:02;6.35;;;1.50;;
74293;SDS011;64044;59.904;10.738;2023-03-15T07:22:30;3.03;;;1.10;;
74293;SDS011;64044;59.904;10.738;2023-03-15T07:24:56;3.28;;;0.82;;
74293;SDS011;64044;59.904;10.738;2023-03-15T07:27:22;2.60;;;1.02;;
74293;SDS011;64044;59.904;10.738;2023-03-15T07:29:48;2.60;;;1.10;;
74293;SDS011;64044;59.904;10.738;2023-03-15T07:32:13;3.80;;;1.50;;
74293;SDS011;64044;59.904;10.738;2023-03-15T07:34:39;3.28;;;1.40;;
74293;SDS011;64044;59.904;10.738;2023-03-15T07:37:05;4.78;;;1.17;;
74293;SDS011;64044;59.904;10.738;2023-03-15T07:39:31;4.20;;;1.20;;
74293;SDS011;64044;59.904;10.738;2023-03-15T07:41:57;2.42;;;1.00;;
74293;SDS011;64044;59.904;10.738;2023-03-15T07:44:23;1.98;;;0.77;;
74293;SDS011;64044;59.904;10.738;2023-03-15T07:46:49;2.53;;;0.70;;
74293;SDS011;64044;59.904;10.738;2023-03-15T07:49:15;4.95;;;1.02;;
74293;SDS011;64044;59.904;10.738;2023-03-15T07:51:41;2.95;;;1.05;;
74293;SDS011;64044;59.904;10.738;2023-03-15T07:54:07;3.70;;;1.27;;
74293;SDS011;64044;59.904;10.738;2023-03-15T07:56:33;2.90;;;1.23;;
74293;SDS011;64044;59.904;10.738;2023-03-15T07:58:59;5.18;;;1.13;;
74293;SDS011;64044;59.904;10.738;2023-03-15T08:01:25;3.05;;;1.50;;
74293;SDS011;64044;59.904;10.738;2023-03-15T08:03:50;1.60;;;0.95;;
74293;SDS011;64044;59.904;10.738;2023-03-15T08:06:16;1.65;;;0.80;;
74293;SDS011;64044;59.904;10.738;2023-03-15T08:08:42;5.40;;;0.93;;
74293;SDS011;64044;59.904;10.738;2023-03-15T08:11:07;2.25;;;1.00;;
74293;SDS011;64044;59.904;10.738;2023-03-15T08:13:33;1.35;;;0.80;;
74293;SDS011;64044;59.904;10.738;2023-03-15T08:15:59;2.92;;;1.30;;
74293;SDS011;64044;59.904;10.738;2023-03-15T08:18:25;2.45;;;1.30;;
74293;SDS011;64044;59.904;10.738;2023-03-15T08:20:55;1.60;;;1.00;;
74293;SDS011;64044;59.904;10.738;2023-03-15T08:23:21;3.97;;;1.40;;
74293;SDS011;64044;59.904;10.738;2023-03-15T08:28:39;4.40;;;0.90;;
74293;SDS011;64044;59.904;10.738;2023-03-15T08:31:06;2.35;;;1.10;;
74293;SDS011;64044;59.904;10.738;2023-03-15T08:33:32;5.30;;;1.10;;
74293;SDS011;64044;59.904;10.738;2023-03-15T08:35:58;3.03;;;1.23;;
74293;SDS011;64044;59.904;10.738;2023-03-15T08:38:25;2.28;;;1.00;;
74293;SDS011;64044;59.904;10.738;2023-03-15T08:40:55;2.92;;;1.25;;
74293;SDS011;64044;59.904;10.738;2023-03-15T08:43:21;2.78;;;1.10;;
74293;SDS011;64044;59.904;10.738;2023-03-15T08:45:48;2.67;;;1.25;;
74293;SDS011;64044;59.904;10.738;2023-03-15T08:48:15;2.88;;;1.13;;
74293;SDS011;64044;59.904;10.738;2023-03-15T08:50:41;2.38;;;1.38;;
74293;SDS011;64044;59.904;10.738;2023-03-15T08:53:08;2.63;;;1.35;;
74293;SDS011;64044;59.904;10.738;2023-03-15T08:55:35;4.35;;;1.80;;
74293;SDS011;64044;59.904;10.738;2023-03-15T08:58:01;4.25;;;1.50;;
74293;SDS011;64044;59.904;10.738;2023-03-15T09:00:28;2.55;;;1.80;;
74293;SDS011;64044;59.904;10.738;2023-03-15T09:02:54;2.25;;;1.58;;
74293;SDS011;64044;59.904;10.738;2023-03-15T09:05:21;4.82;;;1.38;;
74293;SDS011;64044;59.904;10.738;2023-03-15T09:07:47;2.03;;;1.02;;
74293;SDS011;64044;59.904;10.738;2023-03-15T09:10:14;2.13;;;1.42;;
74293;SDS011;64044;59.904;10.738;2023-03-15T09:12:41;2.25;;;0.90;;
74293;SDS011;64044;59.904;10.738;2023-03-15T09:15:08;1.55;;;1.10;;
74293;SDS011;64044;59.904;10.738;2023-03-15T09:17:36;4.57;;;1.30;;
74293;SDS011;64044;59.904;10.738;2023-03-15T09:20:03;3.67;;;1.13;;
74293;SDS011;64044;59.904;10.738;2023-03-15T09:22:35;4.40;;;1.20;;
74293;SDS011;64044;59.904;10.738;2023-03-15T09:25:01;2.35;;;1.13;;
74293;SDS011;64044;59.904;10.738;2023-03-15T09:27:29;2.53;;;1.05;;
74293;SDS011;64044;59.904;10.738;2023-03-15T09:29:55;4.05;;;1.23;;
74293;SDS011;64044;59.904;10.738;2023-03-15T09:32:21;3.35;;;1.33;;
74293;SDS011;64044;59.904;10.738;2023-03-15T09:34:47;3.15;;;1.30;;
74293;SDS011;64044;59.904;10.738;2023-03-15T09:37:13;3.10;;;1.13;;
74293;SDS011;64044;59.904;10.738;2023-03-15T09:39:39;3.67;;;1.42;;
74293;SDS011;64044;59.904;10.738;2023-03-15T09:45:21;2.13;;;1.00;;
74293;SDS011;64044;59.904;10.738;2023-03-15T09:50:44;3.42;;;1.30;;
74293;SDS011;64044;59.904;10.738;2023-03-15T09:53:31;3.13;;;1.20;;
74293;SDS011;64044;59.904;10.738;2023-03-15T09:55:58;3.88;;;1.13;;
74293;SDS011;64044;59.904;10.738;2023-03-15T09:58:24;2.15;;;1.35;;
74293;SDS011;64044;59.904;10.738;2023-03-15T10:00:58;1.88;;;0.90;;
74293;SDS011;64044;59.904;10.738;2023-03-15T10:06:12;2.50;;;1.30;;
74293;SDS011;64044;59.904;10.738;2023-03-15T10:08:42;3.92;;;1.25;;
74293;SDS011;64044;59.904;10.738;2023-03-15T10:14:04;3.63;;;1.52;;
74293;SDS011;64044;59.904;10.738;2023-03-15T10:16:52;4.60;;;1.70;;
74293;SDS011;64044;59.904;10.738;2023-03-15T10:19:24;3.72;;;1.33;;
74293;SDS011;64044;59.904;10.738;2023-03-15T10:22:46;2.20;;;1.38;;
74293;SDS011;64044;59.904;10.738;2023-03-15T10:25:17;1.60;;;0.98;;
74293;SDS011;64044;59.904;10.738;2023-03-15T10:30:27;3.00;;;1.33;;
74293;SDS011;64044;59.904;10.738;2023-03-15T10:32:56;2.75;;;1.95;;
74293;SDS011;64044;59.904;10.738;2023-03-15T10:37:51;2.95;;;1.00;;
74293;SDS011;64044;59.904;10.738;2023-03-15T10:48:34;4.57;;;1.02;;
74293;SDS011;64044;59.904;10.738;2023-03-15T10:51:29;1.85;;;0.90;;
74293;SDS011;64044;59.904;10.738;2023-03-15T10:56:57;1.67;;;0.77;;
74293;SDS011;64044;59.904;10.738;2023-03-15T10:59:27;5.20;;;1.10;;
74293;SDS011;64044;59.904;10.738;2023-03-15T11:04:48;1.45;;;0.93;;
74293;SDS011;64044;59.904;10.738;2023-03-15T11:07:23;3.92;;;1.20;;
74293;SDS011;64044;59.904;10.738;2023-03-15T11:09:53;2.67;;;1.00;;
74293;SDS011;64044;59.904;10.738;2023-03-15T11:12:32;3.25;;;1.23;;
74293;SDS011;64044;59.904;10.738;2023-03-15T11:17:36;2.95;;;1.40;;
74293;SDS011;64044;59.904;10.738;2023-03-15T11:22:59;1.63;;;0.85;;
74293;SDS011;64044;59.904;10.738;2023-03-15T11:25:38;3.53;;;1.30;;
74293;SDS011;64044;59.904;10.738;2023-03-15T11:28:04;3.30;;;1.13;;
74293;SDS011;64044;59.904;10.738;2023-03-15T11:30:30;2.08;;;1.15;;
74293;SDS011;64044;59.904;10.738;2023-03-15T11:33:06;1.70;;;1.10;;
74293;SDS011;64044;59.904;10.738;2023-03-15T11:35:41;4.32;;;2.90;;
74293;SDS011;64044;59.904;10.738;2023-03-15T11:38:13;2.70;;;1.50;;
74293;SDS011;64044;59.904;10.738;2023-03-15T11:40:50;2.10;;;1.10;;
74293;SDS011;64044;59.904;10.738;2023-03-15T11:43:22;6.32;;;1.20;;
74293;SDS011;64044;59.904;10.738;2023-03-15T11:46:13;5.50;;;1.88;;
74293;SDS011;64044;59.904;10.738;2023-03-15T11:49:16;1.83;;;1.33;;
74293;SDS011;64044;59.904;10.738;2023-03-15T11:51:54;3.78;;;1.00;;
74293;SDS011;64044;59.904;10.738;2023-03-15T11:54:20;7.55;;;1.63;;
74293;SDS011;64044;59.904;10.738;2023-03-15T11:56:53;1.30;;;0.80;;
74293;SDS011;64044;59.904;10.738;2023-03-15T11:59:34;1.95;;;0.70;;
74293;SDS011;64044;59.904;10.738;2023-03-15T12:12:46;2.53;;;1.05;;
74293;SDS011;64044;59.904;10.738;2023-03-15T12:17:58;3.80;;;1.20;;
74293;SDS011;64044;59.904;10.738;2023-03-15T12:20:33;3.80;;;1.67;;
74293;SDS011;64044;59.904;10.738;2023-03-15T12:28:18;1.70;;;0.90;;
74293;SDS011;64044;59.904;10.738;2023-03-15T12:30:53;1.35;;;0.88;;
74293;SDS011;64044;59.904;10.738;2023-03-15T12:33:21;3.03;;;1.40;;
74293;SDS011;64044;59.904;10.738;2023-03-15T12:35:48;2.13;;;0.80;;
74293;SDS011;64044;59.904;10.738;2023-03-15T12:38:15;2.58;;;1.13;;
74293;SDS011;64044;59.904;10.738;2023-03-15T12:40:52;3.55;;;1.00;;
74293;SDS011;64044;59.904;10.738;2023-03-15T12:46:51;1.02;;;0.75;;
74293;SDS011;64044;59.904;10.738;2023-03-15T12:49:06;2.20;;;0.70;;
74293;SDS011;64044;59.904;10.738;2023-03-15T12:51:40;1.58;;;0.65;;
74293;SDS011;64044;59.904;10.738;2023-03-15T12:54:33;2.95;;;0.70;;
74293;SDS011;64044;59.904;10.738;2023-03-15T12:57:04;0.85;;;0.55;;
74293;SDS011;64044;59.904;10.738;2023-03-15T13:07:41;3.10;;;1.08;;
74293;SDS011;64044;59.904;10.738;2023-03-15T13:10:35;2.08;;;0.68;;
74293;SDS011;64044;59.904;10.738;2023-03-15T13:18:30;1.13;;;0.40;;
74293;SDS011;64044;59.904;10.738;2023-03-15T13:23:37;3.38;;;0.80;;
74293;SDS011;64044;59.904;10.738;2023-03-15T13:28:48;4.55;;;0.85;;
74293;SDS011;64044;59.904;10.738;2023-03-15T13:31:26;7.00;;;0.88;;
74293;SDS011;64044;59.904;10.738;2023-03-15T13:33:54;2.70;;;0.80;;
74293;SDS011;64044;59.904;10.738;2023-03-15T13:36:29;1.67;;;0.70;;
74293;SDS011;64044;59.904;10.738;2023-03-15T13:39:09;4.75;;;0.93;;
74293;SDS011;64044;59.904;10.738;2023-03-15T13:41:41;2.78;;;0.95;;
74293;SDS011;64044;59.904;10.738;2023-03-15T13:44:13;1.52;;;0.73;;
74293;SDS011;64044;59.904;10.738;2023-03-15T13:46:42;2.10;;;0.80;;
74293;SDS011;64044;59.904;10.738;2023-03-15T13:49:08;1.98;;;0.90;;
74293;SDS011;64044;59.904;10.738;2023-03-15T13:51:37;3.00;;;0.95;;
74293;SDS011;64044;59.904;10.738;2023-03-15T13:54:05;7.63;;;0.80;;
74293;SDS011;64044;59.904;10.738;2023-03-15T13:56:34;2.95;;;0.95;;
74293;SDS011;64044;59.904;10.738;2023-03-15T13:59:02;5.55;;;1.00;;
74293;SDS011;64044;59.904;10.738;2023-03-15T14:01:29;3.03;;;1.10;;
74293;SDS011;64044;59.904;10.738;2023-03-15T14:04:01;3.50;;;1.13;;
74293;SDS011;64044;59.904;10.738;2023-03-15T14:06:38;4.43;;;1.00;;
74293;SDS011;64044;59.904;10.738;2023-03-15T14:09:15;3.70;;;0.82;;
74293;SDS011;64044;59.904;10.738;2023-03-15T14:11:59;2.90;;;1.58;;
74293;SDS011;64044;59.904;10.738;2023-03-15T14:14:27;1.80;;;1.02;;
74293;SDS011;64044;59.904;10.738;2023-03-15T14:16:55;2.00;;;1.10;;
74293;SDS011;64044;59.904;10.738;2023-03-15T14:19:23;3.03;;;1.10;;
74293;SDS011;64044;59.904;10.738;2023-03-15T14:21:51;2.20;;;1.05;;
74293;SDS011;64044;59.904;10.738;2023-03-15T14:26:55;2.95;;;1.00;;
74293;SDS011;64044;59.904;10.738;2023-03-15T14:29:29;2.28;;;1.13;;
74293;SDS011;64044;59.904;10.738;2023-03-15T14:32:21;2.83;;;1.20;;
74293;SDS011;64044;59.904;10.738;2023-03-15T14:34:59;1.55;;;0.85;;
74293;SDS011;64044;59.904;10.738;2023-03-15T14:37:40;3.30;;;1.08;;
74293;SDS011;64044;59.904;10.738;2023-03-15T14:40:20;2.63;;;0.93;;
74293;SDS011;64044;59.904;10.738;2023-03-15T14:42:52;1.65;;;0.98;;
74293;SDS011;64044;59.904;10.738;2023-03-15T14:45:19;3.58;;;1.40;;
74293;SDS011;64044;59.904;10.738;2023-03-15T14:47:52;1.73;;;0.90;;
74293;SDS011;64044;59.904;10.738;2023-03-15T14:50:22;2.58;;;1.00;;
74293;SDS011;64044;59.904;10.738;2023-03-15T14:52:50;2.90;;;1.10;;
74293;SDS011;64044;59.904;10.738;2023-03-15T14:55:18;1.90;;;0.82;;
74293;SDS011;64044;59.904;10.738;2023-03-15T14:57:47;3.38;;;1.08;;
74293;SDS011;64044;59.904;10.738;2023-03-15T15:00:13;4.00;;;1.10;;
74293;SDS011;64044;59.904;10.738;2023-03-15T15:02:42;2.97;;;0.98;;
74293;SDS011;64044;59.904;10.738;2023-03-15T15:07:46;5.13;;;0.90;;
74293;SDS011;64044;59.904;10.738;2023-03-15T15:10:12;2.25;;;0.80;;
74293;SDS011;64044;59.904;10.738;2023-03-15T15:12:39;1.75;;;0.77;;
74293;SDS011;64044;59.904;10.738;2023-03-15T15:15:12;2.83;;;0.90;;
74293;SDS011;64044;59.904;10.738;2023-03-15T15:17:39;3.95;;;1.10;;
74293;SDS011;64044;59.904;10.738;2023-03-15T15:20:05;2.97;;;1.10;;
74293;SDS011;64044;59.904;10.738;2023-03-15T15:22:31;8.25;;;1.42;;
74293;SDS011;64044;59.904;10.738;2023-03-15T15:24:57;2.17;;;1.20;;
74293;SDS011;64044;59.904;10.738;2023-03-15T15:27:23;3.08;;;1.00;;
74293;SDS011;64044;59.904;10.738;2023-03-15T15:29:49;4.40;;;1.13;;
74293;SDS011;64044;59.904;10.738;2023-03-15T15:32:16;3.30;;;1.30;;
74293;SDS011;64044;59.904;10.738;2023-03-15T15:34:42;4.18;;;1.40;;
74293;SDS011;64044;59.904;10.738;2023-03-15T15:37:09;3.53;;;1.70;;
74293;SDS011;64044;59.904;10.738;2023-03-15T15:39:35;2.03;;;0.98;;
74293;SDS011;64044;59.904;10.738;2023-03-15T15:42:01;1.42;;;1.00;;
74293;SDS011;64044;59.904;10.738;2023-03-15T15:44:27;3.75;;;1.05;;
74293;SDS011;64044;59.904;10.738;2023-03-15T15:46:52;2.40;;;1.00;;
74293;SDS011;64044;59.904;10.738;2023-03-15T15:49:18;9.20;;;1.65;;
74293;SDS011;64044;59.904;10.738;2023-03-15T15:51:45;2.90;;;1.20;;
74293;SDS011;64044;59.904;10.738;2023-03-15T15:54:17;2.28;;;0.90;;
74293;SDS011;64044;59.904;10.738;2023-03-15T15:56:52;4.70;;;1.48;;
74293;SDS011;64044;59.904;10.738;2023-03-15T15:59:20;6.45;;;1.23;;
74293;SDS011;64044;59.904;10.738;2023-03-15T16:01:46;3.08;;;1.35;;
74293;SDS011;64044;59.904;10.738;2023-03-15T16:04:13;3.50;;;1.20;;
74293;SDS011;64044;59.904;10.738;2023-03-15T16:06:39;4.55;;;1.42;;
74293;SDS011;64044;59.904;10.738;2023-03-15T16:09:06;4.85;;;1.27;;
74293;SDS011;64044;59.904;10.738;2023-03-15T16:11:33;2.45;;;0.98;;
74293;SDS011;64044;59.904;10.738;2023-03-15T16:13:59;3.28;;;1.33;;
74293;SDS011;64044;59.904;10.738;2023-03-15T16:16:25;3.65;;;1.35;;
74293;SDS011;64044;59.904;10.738;2023-03-15T16:18:51;2.78;;;1.08;;
74293;SDS011;64044;59.904;10.738;2023-03-15T16:21:21;3.63;;;1.45;;
74293;SDS011;64044;59.904;10.738;2023-03-15T16:23:51;3.13;;;1.52;;
74293;SDS011;64044;59.904;10.738;2023-03-15T16:26:21;3.00;;;1.15;;
74293;SDS011;64044;59.904;10.738;2023-03-15T16:28:47;3.17;;;1.30;;